sensor_id;sensor_type;location;lat;lon;timestamp;pressure;altitude;pressure_sealevel;temperature;humidity
50103;BME280;35993;52.604;10.078;2023-05-27T00:02:21;102532.34;;;10.06;93.01
50103;BME280;35993;52.604;10.078;2023-05-27T00:04:46;102528.59;;;9.91;93.99
50103;BME280;35993;52.604;10.078;2023-05-27T00:07:12;102527.56;;;9.67;95.33
50103;BME280;35993;52.604;10.078;2023-05-27T00:09:37;102523.50;;;9.71;96.58
50103;BME280;35993;52.604;10.078;2023-05-27T00:12:03;102527.22;;;9.70;96.62
50103;BME280;35993;52.604;10.078;2023-05-27T00:14:29;102533.66;;;9.61;97.13
50103;BME280;35993;52.604;10.078;2023-05-27T00:16:54;102532.78;;;9.52;97.73
50103;BME280;35993;52.604;10.078;2023-05-27T00:19:20;102533.28;;;9.56;97.83
50103;BME280;35993;52.604;10.078;2023-05-27T00:21:46;102536.53;;;9.59;97.73
50103;BME280;35993;52.604;10.078;2023-05-27T00:24:11;102536.22;;;9.71;96.89
50103;BME280;35993;52.604;10.078;2023-05-27T00:26:37;102537.03;;;9.63;96.78
50103;BME280;35993;52.604;10.078;2023-05-27T00:29:04;102529.06;;;9.53;97.55
50103;BME280;35993;52.604;10.078;2023-05-27T00:31:29;102526.66;;;9.50;98.97
50103;BME280;35993;52.604;10.078;2023-05-27T00:33:55;102539.56;;;9.56;98.64
50103;BME280;35993;52.604;10.078;2023-05-27T00:36:20;102533.59;;;9.52;98.31
50103;BME280;35993;52.604;10.078;2023-05-27T00:38:46;102532.88;;;9.34;98.70
50103;BME280;35993;52.604;10.078;2023-05-27T00:41:12;102531.66;;;9.20;99.92
50103;BME280;35993;52.604;10.078;2023-05-27T00:43:38;102534.06;;;9.31;100.00
50103;BME280;35993;52.604;10.078;2023-05-27T00:46:04;102535.97;;;9.47;99.82
50103;BME280;35993;52.604;10.078;2023-05-27T00:48:30;102530.19;;;9.34;99.16
50103;BME280;35993;52.604;10.078;2023-05-27T00:50:55;102532.19;;;9.32;99.60
50103;BME280;35993;52.604;10.078;2023-05-27T00:53:21;102524.81;;;9.50;99.10
50103;BME280;35993;52.604;10.078;2023-05-27T00:55:52;102524.78;;;9.42;98.48
50103;BME280;35993;52.604;10.078;2023-05-27T00:58:18;102522.09;;;9.50;98.47
50103;BME280;35993;52.604;10.078;2023-05-27T01:00:47;102522.75;;;9.44;98.13
50103;BME280;35993;52.604;10.078;2023-05-27T01:03:14;102526.31;;;9.45;97.95
50103;BME280;35993;52.604;10.078;2023-05-27T01:05:40;102522.53;;;9.29;98.38
50103;BME280;35993;52.604;10.078;2023-05-27T01:10:53;102528.03;;;9.03;100.00
50103;BME280;35993;52.604;10.078;2023-05-27T01:15:49;102515.38;;;9.12;99.62
50103;BME280;35993;52.604;10.078;2023-05-27T01:18:17;102521.97;;;9.09;100.00
50103;BME280;35993;52.604;10.078;2023-05-27T01:20:47;102520.44;;;9.15;99.83
50103;BME280;35993;52.604;10.078;2023-05-27T01:23:13;102523.78;;;9.00;100.00
50103;BME280;35993;52.604;10.078;2023-05-27T01:25:39;102521.59;;;9.04;100.00
50103;BME280;35993;52.604;10.078;2023-05-27T01:28:04;102525.50;;;9.10;100.00
50103;BME280;35993;52.604;10.078;2023-05-27T01:30:31;102524.63;;;9.01;100.00
50103;BME280;35993;52.604;10.078;2023-05-27T01:33:07;102510.75;;;9.04;100.00
50103;BME280;35993;52.604;10.078;2023-05-27T01:35:42;102516.69;;;9.08;100.00
50103;BME280;35993;52.604;10.078;2023-05-27T01:38:14;102517.47;;;8.92;100.00
50103;BME280;35993;52.604;10.078;2023-05-27T01:40:42;102520.66;;;8.87;100.00
50103;BME280;35993;52.604;10.078;2023-05-27T01:43:09;102513.84;;;8.75;100.00
50103;BME280;35993;52.604;10.078;2023-05-27T01:45:37;102514.19;;;8.80;100.00
50103;BME280;35993;52.604;10.078;2023-05-27T01:48:03;102515.28;;;8.95;100.00
50103;BME280;35993;52.604;10.078;2023-05-27T01:50:29;102505.47;;;8.94;100.00
50103;BME280;35993;52.604;10.078;2023-05-27T01:52:56;102499.78;;;8.79;99.70
50103;BME280;35993;52.604;10.078;2023-05-27T01:55:22;102504.38;;;8.79;100.00
50103;BME280;35993;52.604;10.078;2023-05-27T01:57:47;102497.16;;;8.88;99.92
50103;BME280;35993;52.604;10.078;2023-05-27T02:00:15;102491.31;;;8.74;99.76
50103;BME280;35993;52.604;10.078;2023-05-27T02:02:43;102497.69;;;8.65;99.74
50103;BME280;35993;52.604;10.078;2023-05-27T02:05:12;102496.44;;;8.85;100.00
50103;BME280;35993;52.604;10.078;2023-05-27T02:07:37;102497.28;;;8.86;98.62
50103;BME280;35993;52.604;10.078;2023-05-27T02:10:04;102492.00;;;8.76;98.43
50103;BME280;35993;52.604;10.078;2023-05-27T02:12:30;102495.75;;;8.83;98.72
50103;BME280;35993;52.604;10.078;2023-05-27T02:14:56;102495.88;;;8.74;97.87
50103;BME280;35993;52.604;10.078;2023-05-27T02:17:21;102492.22;;;8.57;98.73
50103;BME280;35993;52.604;10.078;2023-05-27T02:19:50;102490.31;;;8.75;99.16
50103;BME280;35993;52.604;10.078;2023-05-27T02:22:15;102493.91;;;8.84;98.12
50103;BME280;35993;52.604;10.078;2023-05-27T02:24:42;102492.81;;;8.68;97.34
50103;BME280;35993;52.604;10.078;2023-05-27T02:27:07;102492.75;;;8.60;98.02
50103;BME280;35993;52.604;10.078;2023-05-27T02:29:34;102495.19;;;8.72;97.87
50103;BME280;35993;52.604;10.078;2023-05-27T02:31:59;102497.06;;;8.71;97.00
50103;BME280;35993;52.604;10.078;2023-05-27T02:34:25;102497.44;;;8.50;97.67
50103;BME280;35993;52.604;10.078;2023-05-27T02:36:50;102492.91;;;8.59;97.82
50103;BME280;35993;52.604;10.078;2023-05-27T02:39:17;102494.81;;;8.66;97.55
50103;BME280;35993;52.604;10.078;2023-05-27T02:41:42;102490.84;;;8.52;97.61
50103;BME280;35993;52.604;10.078;2023-05-27T02:44:09;102499.72;;;8.45;97.96
50103;BME280;35993;52.604;10.078;2023-05-27T02:46:35;102512.66;;;8.51;98.44
50103;BME280;35993;52.604;10.078;2023-05-27T02:49:00;102512.97;;;8.30;98.98
50103;BME280;35993;52.604;10.078;2023-05-27T02:51:28;102513.88;;;8.12;100.00
50103;BME280;35993;52.604;10.078;2023-05-27T02:53:53;102517.00;;;8.26;100.00
50103;BME280;35993;52.604;10.078;2023-05-27T02:56:19;102517.84;;;8.44;100.00
50103;BME280;35993;52.604;10.078;2023-05-27T02:58:45;102513.13;;;8.28;98.84
50103;BME280;35993;52.604;10.078;2023-05-27T03:01:10;102514.69;;;8.31;99.84
50103;BME280;35993;52.604;10.078;2023-05-27T03:03:36;102515.06;;;8.36;100.00
50103;BME280;35993;52.604;10.078;2023-05-27T03:06:01;102517.22;;;8.32;100.00
50103;BME280;35993;52.604;10.078;2023-05-27T03:08:28;102519.34;;;8.02;100.00
50103;BME280;35993;52.604;10.078;2023-05-27T03:10:54;102512.72;;;7.97;100.00
50103;BME280;35993;52.604;10.078;2023-05-27T03:13:19;102514.56;;;7.96;100.00
50103;BME280;35993;52.604;10.078;2023-05-27T03:15:45;102509.00;;;7.98;100.00
50103;BME280;35993;52.604;10.078;2023-05-27T03:18:10;102516.19;;;8.07;100.00
50103;BME280;35993;52.604;10.078;2023-05-27T03:20:36;102512.16;;;8.11;100.00
50103;BME280;35993;52.604;10.078;2023-05-27T03:23:02;102504.91;;;7.94;100.00
50103;BME280;35993;52.604;10.078;2023-05-27T03:25:28;102509.88;;;7.80;100.00
50103;BME280;35993;52.604;10.078;2023-05-27T03:27:55;102508.34;;;7.78;100.00
50103;BME280;35993;52.604;10.078;2023-05-27T03:30:21;102507.00;;;7.64;100.00
50103;BME280;35993;52.604;10.078;2023-05-27T03:32:50;102507.00;;;7.64;100.00
50103;BME280;35993;52.604;10.078;2023-05-27T03:35:21;102504.75;;;7.77;100.00
50103;BME280;35993;52.604;10.078;2023-05-27T03:37:47;102515.34;;;7.88;100.00
50103;BME280;35993;52.604;10.078;2023-05-27T03:40:12;102504.22;;;7.74;100.00
50103;BME280;35993;52.604;10.078;2023-05-27T03:42:38;102499.81;;;7.54;100.00
50103;BME280;35993;52.604;10.078;2023-05-27T03:45:04;102506.91;;;7.74;100.00
50103;BME280;35993;52.604;10.078;2023-05-27T03:47:30;102506.63;;;7.95;100.00
50103;BME280;35993;52.604;10.078;2023-05-27T03:49:56;102506.22;;;8.08;100.00
50103;BME280;35993;52.604;10.078;2023-05-27T03:52:21;102506.66;;;8.03;100.00
50103;BME280;35993;52.604;10.078;2023-05-27T03:54:47;102509.78;;;7.90;100.00
50103;BME280;35993;52.604;10.078;2023-05-27T03:57:12;102510.31;;;7.76;100.00
50103;BME280;35993;52.604;10.078;2023-05-27T03:59:38;102503.91;;;7.77;100.00
50103;BME280;35993;52.604;10.078;2023-05-27T04:02:04;102498.34;;;7.78;100.00
50103;BME280;35993;52.604;10.078;2023-05-27T04:04:30;102495.59;;;7.70;100.00
50103;BME280;35993;52.604;10.078;2023-05-27T04:06:55;102498.56;;;7.67;100.00
50103;BME280;35993;52.604;10.078;2023-05-27T04:09:21;102504.47;;;7.80;100.00
50103;BME280;35993;52.604;10.078;2023-05-27T04:11:46;102493.94;;;7.77;100.00
50103;BME280;35993;52.604;10.078;2023-05-27T04:14:12;102499.91;;;7.81;100.00
50103;BME280;35993;52.604;10.078;2023-05-27T04:16:37;102508.47;;;8.12;100.00
50103;BME280;35993;52.604;10.078;2023-05-27T04:19:03;102498.56;;;8.03;100.00
50103;BME280;35993;52.604;10.078;2023-05-27T04:21:28;102493.16;;;7.85;100.00
50103;BME280;35993;52.604;10.078;2023-05-27T04:23:56;102494.03;;;7.85;100.00
50103;BME280;35993;52.604;10.078;2023-05-27T04:26:22;102501.28;;;7.85;100.00
50103;BME280;35993;52.604;10.078;2023-05-27T04:28:52;102498.81;;;7.92;100.00
50103;BME280;35993;52.604;10.078;2023-05-27T04:31:19;102501.59;;;8.00;100.00
50103;BME280;35993;52.604;10.078;2023-05-27T04:33:50;102495.59;;;8.14;100.00
50103;BME280;35993;52.604;10.078;2023-05-27T04:36:17;102494.72;;;8.32;100.00
50103;BME280;35993;52.604;10.078;2023-05-27T04:39:05;102493.34;;;8.46;100.00
50103;BME280;35993;52.604;10.078;2023-05-27T04:41:34;102497.25;;;8.51;100.00
50103;BME280;35993;52.604;10.078;2023-05-27T04:44:08;102503.13;;;8.73;100.00
50103;BME280;35993;52.604;10.078;2023-05-27T04:46:38;102500.00;;;8.86;99.78
50103;BME280;35993;52.604;10.078;2023-05-27T04:49:09;102506.91;;;8.80;99.84
50103;BME280;35993;52.604;10.078;2023-05-27T04:51:35;102509.94;;;9.12;100.00
50103;BME280;35993;52.604;10.078;2023-05-27T04:54:01;102506.44;;;9.28;97.54
50103;BME280;35993;52.604;10.078;2023-05-27T04:56:27;102504.91;;;9.25;96.17
50103;BME280;35993;52.604;10.078;2023-05-27T04:58:54;102503.72;;;9.20;96.44
50103;BME280;35993;52.604;10.078;2023-05-27T05:01:23;102499.00;;;9.38;96.68
50103;BME280;35993;52.604;10.078;2023-05-27T05:04:05;102504.06;;;9.25;96.59
50103;BME280;35993;52.604;10.078;2023-05-27T05:06:43;102500.19;;;9.27;97.44
50103;BME280;35993;52.604;10.078;2023-05-27T05:09:09;102517.19;;;9.62;96.82
50103;BME280;35993;52.604;10.078;2023-05-27T05:11:36;102503.31;;;9.82;94.95
50103;BME280;35993;52.604;10.078;2023-05-27T05:14:02;102504.19;;;9.82;95.04
50103;BME280;35993;52.604;10.078;2023-05-27T05:16:28;102502.50;;;9.98;94.83
50103;BME280;35993;52.604;10.078;2023-05-27T05:18:53;102494.53;;;10.38;94.73
50103;BME280;35993;52.604;10.078;2023-05-27T05:21:21;102498.91;;;10.63;92.88
50103;BME280;35993;52.604;10.078;2023-05-27T05:23:46;102496.66;;;10.75;93.10
50103;BME280;35993;52.604;10.078;2023-05-27T05:26:12;102499.22;;;10.77;91.54
50103;BME280;35993;52.604;10.078;2023-05-27T05:28:40;102497.38;;;10.61;91.44
50103;BME280;35993;52.604;10.078;2023-05-27T05:31:07;102499.22;;;10.77;92.82
50103;BME280;35993;52.604;10.078;2023-05-27T05:33:33;102512.19;;;11.06;91.95
50103;BME280;35993;52.604;10.078;2023-05-27T05:36:00;102508.50;;;11.30;91.94
50103;BME280;35993;52.604;10.078;2023-05-27T05:38:34;102503.63;;;11.49;91.37
50103;BME280;35993;52.604;10.078;2023-05-27T05:41:00;102506.31;;;11.57;90.73
50103;BME280;35993;52.604;10.078;2023-05-27T05:43:26;102512.31;;;11.76;89.87
50103;BME280;35993;52.604;10.078;2023-05-27T05:45:52;102508.38;;;11.78;89.73
50103;BME280;35993;52.604;10.078;2023-05-27T05:48:19;102511.09;;;11.78;89.01
50103;BME280;35993;52.604;10.078;2023-05-27T05:50:45;102506.41;;;11.95;89.33
50103;BME280;35993;52.604;10.078;2023-05-27T05:53:11;102516.03;;;12.06;89.06
50103;BME280;35993;52.604;10.078;2023-05-27T05:55:37;102517.56;;;11.77;88.90
50103;BME280;35993;52.604;10.078;2023-05-27T05:58:03;102513.63;;;11.57;90.11
50103;BME280;35993;52.604;10.078;2023-05-27T06:00:29;102516.72;;;11.77;90.92
50103;BME280;35993;52.604;10.078;2023-05-27T06:03:12;102518.66;;;11.91;89.65
50103;BME280;35993;52.604;10.078;2023-05-27T06:05:50;102518.81;;;12.21;88.48
50103;BME280;35993;52.604;10.078;2023-05-27T06:08:15;102515.06;;;12.37;88.55
50103;BME280;35993;52.604;10.078;2023-05-27T06:10:48;102501.56;;;12.44;87.41
50103;BME280;35993;52.604;10.078;2023-05-27T06:13:13;102501.25;;;12.39;86.77
50103;BME280;35993;52.604;10.078;2023-05-27T06:15:39;102515.44;;;12.34;87.31
50103;BME280;35993;52.604;10.078;2023-05-27T06:18:07;102514.41;;;12.35;86.95
50103;BME280;35993;52.604;10.078;2023-05-27T06:20:33;102511.50;;;12.37;86.51
50103;BME280;35993;52.604;10.078;2023-05-27T06:22:59;102516.22;;;12.58;87.07
50103;BME280;35993;52.604;10.078;2023-05-27T06:26:02;102521.78;;;12.94;86.21
50103;BME280;35993;52.604;10.078;2023-05-27T06:28:31;102514.53;;;13.02;85.24
50103;BME280;35993;52.604;10.078;2023-05-27T06:30:56;102513.16;;;13.06;83.86
50103;BME280;35993;52.604;10.078;2023-05-27T06:33:22;102509.28;;;13.15;83.75
50103;BME280;35993;52.604;10.078;2023-05-27T06:35:47;102510.66;;;13.26;83.81
50103;BME280;35993;52.604;10.078;2023-05-27T06:38:13;102503.03;;;13.36;83.62
50103;BME280;35993;52.604;10.078;2023-05-27T06:40:39;102502.47;;;13.41;82.72
50103;BME280;35993;52.604;10.078;2023-05-27T06:43:05;102502.72;;;13.61;82.95
50103;BME280;35993;52.604;10.078;2023-05-27T06:45:51;102501.94;;;13.67;81.58
50103;BME280;35993;52.604;10.078;2023-05-27T06:48:27;102507.16;;;13.84;81.73
50103;BME280;35993;52.604;10.078;2023-05-27T06:50:52;102505.56;;;13.96;81.24
50103;BME280;35993;52.604;10.078;2023-05-27T06:53:18;102504.66;;;13.89;80.96
50103;BME280;35993;52.604;10.078;2023-05-27T06:55:53;102498.75;;;14.07;80.62
50103;BME280;35993;52.604;10.078;2023-05-27T06:58:40;102495.88;;;13.93;79.95
50103;BME280;35993;52.604;10.078;2023-05-27T07:01:10;102507.81;;;14.14;80.04
50103;BME280;35993;52.604;10.078;2023-05-27T07:03:45;102498.78;;;14.14;78.21
50103;BME280;35993;52.604;10.078;2023-05-27T07:06:14;102499.75;;;14.28;78.63
50103;BME280;35993;52.604;10.078;2023-05-27T07:08:46;102491.00;;;14.39;77.91
50103;BME280;35993;52.604;10.078;2023-05-27T07:11:20;102486.50;;;14.53;77.33
50103;BME280;35993;52.604;10.078;2023-05-27T07:13:47;102489.19;;;14.74;76.43
50103;BME280;35993;52.604;10.078;2023-05-27T07:16:15;102488.09;;;14.75;74.60
50103;BME280;35993;52.604;10.078;2023-05-27T07:18:40;102486.75;;;14.93;75.11
50103;BME280;35993;52.604;10.078;2023-05-27T07:21:06;102482.38;;;15.05;73.86
50103;BME280;35993;52.604;10.078;2023-05-27T07:23:32;102486.28;;;14.89;72.28
50103;BME280;35993;52.604;10.078;2023-05-27T07:26:13;102477.31;;;15.02;72.71
50103;BME280;35993;52.604;10.078;2023-05-27T07:28:38;102482.44;;;15.19;72.79
50103;BME280;35993;52.604;10.078;2023-05-27T07:31:16;102482.88;;;15.29;72.29
50103;BME280;35993;52.604;10.078;2023-05-27T07:33:48;102466.69;;;15.34;69.92
50103;BME280;35993;52.604;10.078;2023-05-27T07:36:16;102466.53;;;15.49;68.85
50103;BME280;35993;52.604;10.078;2023-05-27T07:38:41;102461.91;;;15.56;68.90
50103;BME280;35993;52.604;10.078;2023-05-27T07:41:07;102466.97;;;15.60;67.93
50103;BME280;35993;52.604;10.078;2023-05-27T07:43:32;102458.97;;;15.65;67.37
50103;BME280;35993;52.604;10.078;2023-05-27T07:45:58;102460.25;;;15.76;67.63
50103;BME280;35993;52.604;10.078;2023-05-27T07:48:24;102451.66;;;15.85;65.96
50103;BME280;35993;52.604;10.078;2023-05-27T07:50:49;102449.13;;;16.04;65.40
50103;BME280;35993;52.604;10.078;2023-05-27T07:53:17;102444.91;;;16.08;65.56
50103;BME280;35993;52.604;10.078;2023-05-27T07:55:43;102441.31;;;16.21;65.88
50103;BME280;35993;52.604;10.078;2023-05-27T07:58:08;102444.66;;;16.36;65.85
50103;BME280;35993;52.604;10.078;2023-05-27T08:00:48;102444.25;;;16.26;65.17
50103;BME280;35993;52.604;10.078;2023-05-27T08:03:14;102433.09;;;16.34;63.86
50103;BME280;35993;52.604;10.078;2023-05-27T08:05:58;102433.03;;;16.48;64.32
50103;BME280;35993;52.604;10.078;2023-05-27T08:08:43;102427.56;;;16.48;62.63
50103;BME280;35993;52.604;10.078;2023-05-27T08:11:19;102426.34;;;16.37;62.84
50103;BME280;35993;52.604;10.078;2023-05-27T08:14:20;102415.78;;;16.34;61.99
50103;BME280;35993;52.604;10.078;2023-05-27T08:16:59;102405.41;;;16.49;61.44
50103;BME280;35993;52.604;10.078;2023-05-27T08:19:47;102411.31;;;16.53;60.93
50103;BME280;35993;52.604;10.078;2023-05-27T08:22:32;102411.50;;;16.58;61.30
50103;BME280;35993;52.604;10.078;2023-05-27T08:25:15;102405.81;;;16.66;60.46
50103;BME280;35993;52.604;10.078;2023-05-27T08:27:55;102398.41;;;16.67;60.67
50103;BME280;35993;52.604;10.078;2023-05-27T08:31:02;102398.31;;;16.87;60.24
50103;BME280;35993;52.604;10.078;2023-05-27T08:33:40;102397.28;;;16.88;59.52
50103;BME280;35993;52.604;10.078;2023-05-27T08:36:06;102392.16;;;17.05;59.29
50103;BME280;35993;52.604;10.078;2023-05-27T08:38:32;102387.19;;;17.20;58.32
50103;BME280;35993;52.604;10.078;2023-05-27T08:41:11;102381.59;;;17.34;58.35
50103;BME280;35993;52.604;10.078;2023-05-27T08:43:37;102388.19;;;17.33;57.85
50103;BME280;35993;52.604;10.078;2023-05-27T08:46:03;102373.75;;;17.44;56.99
50103;BME280;35993;52.604;10.078;2023-05-27T08:48:31;102379.00;;;17.46;57.13
50103;BME280;35993;52.604;10.078;2023-05-27T08:50:56;102384.91;;;17.49;56.87
50103;BME280;35993;52.604;10.078;2023-05-27T08:53:24;102382.97;;;17.50;56.24
50103;BME280;35993;52.604;10.078;2023-05-27T08:55:51;102378.50;;;17.24;55.82
50103;BME280;35993;52.604;10.078;2023-05-27T08:58:19;102376.88;;;17.48;56.12
50103;BME280;35993;52.604;10.078;2023-05-27T09:00:48;102366.84;;;17.60;55.12
50103;BME280;35993;52.604;10.078;2023-05-27T09:03:19;102372.44;;;17.72;55.63
50103;BME280;35993;52.604;10.078;2023-05-27T09:05:45;102362.56;;;17.90;55.23
50103;BME280;35993;52.604;10.078;2023-05-27T09:08:11;102365.31;;;17.90;55.60
50103;BME280;35993;52.604;10.078;2023-05-27T09:10:38;102371.72;;;18.09;55.64
50103;BME280;35993;52.604;10.078;2023-05-27T09:13:04;102365.75;;;17.93;55.37
50103;BME280;35993;52.604;10.078;2023-05-27T09:15:33;102365.00;;;18.05;54.56
50103;BME280;35993;52.604;10.078;2023-05-27T09:17:59;102359.19;;;17.88;55.05
50103;BME280;35993;52.604;10.078;2023-05-27T09:20:26;102351.66;;;18.08;54.40
50103;BME280;35993;52.604;10.078;2023-05-27T09:22:58;102353.09;;;18.29;54.21
50103;BME280;35993;52.604;10.078;2023-05-27T09:25:25;102347.13;;;18.32;54.30
50103;BME280;35993;52.604;10.078;2023-05-27T09:27:51;102346.06;;;18.33;54.45
50103;BME280;35993;52.604;10.078;2023-05-27T09:30:20;102351.97;;;18.18;54.40
50103;BME280;35993;52.604;10.078;2023-05-27T09:32:46;102348.69;;;18.10;53.60
50103;BME280;35993;52.604;10.078;2023-05-27T09:35:16;102349.44;;;18.17;53.84
50103;BME280;35993;52.604;10.078;2023-05-27T09:37:41;102349.00;;;17.19;54.66
50103;BME280;35993;52.604;10.078;2023-05-27T09:40:10;102348.69;;;17.59;55.26
50103;BME280;35993;52.604;10.078;2023-05-27T09:42:47;102349.16;;;17.81;54.46
50103;BME280;35993;52.604;10.078;2023-05-27T09:45:18;102340.34;;;18.16;54.16
50103;BME280;35993;52.604;10.078;2023-05-27T09:47:48;102333.78;;;18.55;53.63
50103;BME280;35993;52.604;10.078;2023-05-27T09:50:14;102327.97;;;18.44;53.09
50103;BME280;35993;52.604;10.078;2023-05-27T09:52:40;102319.06;;;18.30;52.52
50103;BME280;35993;52.604;10.078;2023-05-27T09:55:08;102317.66;;;18.40;51.98
50103;BME280;35993;52.604;10.078;2023-05-27T09:57:35;102313.03;;;18.71;51.39
50103;BME280;35993;52.604;10.078;2023-05-27T10:00:03;102310.09;;;18.84;50.86
50103;BME280;35993;52.604;10.078;2023-05-27T10:02:42;102312.38;;;18.87;51.46
50103;BME280;35993;52.604;10.078;2023-05-27T10:05:11;102313.44;;;19.05;51.06
50103;BME280;35993;52.604;10.078;2023-05-27T10:07:39;102287.25;;;18.53;49.14
50103;BME280;35993;52.604;10.078;2023-05-27T10:10:10;102298.88;;;18.37;50.65
50103;BME280;35993;52.604;10.078;2023-05-27T10:12:37;102307.00;;;18.62;50.59
50103;BME280;35993;52.604;10.078;2023-05-27T10:15:03;102294.94;;;18.63;50.08
50103;BME280;35993;52.604;10.078;2023-05-27T10:17:49;102291.03;;;19.01;49.48
50103;BME280;35993;52.604;10.078;2023-05-27T10:20:31;102295.03;;;19.29;49.38
50103;BME280;35993;52.604;10.078;2023-05-27T10:23:09;102288.66;;;19.16;49.50
50103;BME280;35993;52.604;10.078;2023-05-27T10:25:40;102285.81;;;19.23;49.67
50103;BME280;35993;52.604;10.078;2023-05-27T10:28:06;102284.22;;;19.15;49.71
50103;BME280;35993;52.604;10.078;2023-05-27T10:30:45;102278.16;;;19.37;49.19
50103;BME280;35993;52.604;10.078;2023-05-27T10:33:12;102274.94;;;19.52;49.03
50103;BME280;35993;52.604;10.078;2023-05-27T10:35:39;102279.63;;;19.63;48.80
50103;BME280;35993;52.604;10.078;2023-05-27T10:38:16;102265.03;;;19.63;47.90
50103;BME280;35993;52.604;10.078;2023-05-27T10:40:43;102275.91;;;19.46;47.70
50103;BME280;35993;52.604;10.078;2023-05-27T10:43:18;102263.44;;;19.31;47.15
50103;BME280;35993;52.604;10.078;2023-05-27T10:45:45;102258.78;;;19.44;47.10
50103;BME280;35993;52.604;10.078;2023-05-27T10:48:21;102256.16;;;19.49;46.87
50103;BME280;35993;52.604;10.078;2023-05-27T10:50:52;102262.75;;;19.48;47.21
50103;BME280;35993;52.604;10.078;2023-05-27T10:53:21;102265.13;;;19.44;47.93
50103;BME280;35993;52.604;10.078;2023-05-27T10:55:48;102251.34;;;19.80;47.42
50103;BME280;35993;52.604;10.078;2023-05-27T10:58:17;102249.31;;;19.99;47.59
50103;BME280;35993;52.604;10.078;2023-05-27T11:00:49;102240.31;;;19.80;46.81
50103;BME280;35993;52.604;10.078;2023-05-27T11:03:23;102236.72;;;19.79;46.78
50103;BME280;35993;52.604;10.078;2023-05-27T11:05:58;102228.00;;;19.47;46.54
50103;BME280;35993;52.604;10.078;2023-05-27T11:08:24;102230.16;;;19.69;47.30
50103;BME280;35993;52.604;10.078;2023-05-27T11:10:50;102234.56;;;19.81;47.07
50103;BME280;35993;52.604;10.078;2023-05-27T11:13:15;102229.75;;;20.01;46.75
50103;BME280;35993;52.604;10.078;2023-05-27T11:15:41;102227.41;;;20.21;46.74
50103;BME280;35993;52.604;10.078;2023-05-27T11:18:08;102228.31;;;20.39;46.55
50103;BME280;35993;52.604;10.078;2023-05-27T11:20:37;102216.19;;;20.11;46.44
50103;BME280;35993;52.604;10.078;2023-05-27T11:23:03;102222.97;;;20.20;46.08
50103;BME280;35993;52.604;10.078;2023-05-27T11:25:29;102215.91;;;20.24;46.05
50103;BME280;35993;52.604;10.078;2023-05-27T11:28:13;102219.94;;;19.93;46.48
50103;BME280;35993;52.604;10.078;2023-05-27T11:30:38;102214.19;;;19.94;46.40
50103;BME280;35993;52.604;10.078;2023-05-27T11:33:04;102209.53;;;20.24;45.71
50103;BME280;35993;52.604;10.078;2023-05-27T11:35:30;102198.16;;;20.20;44.68
50103;BME280;35993;52.604;10.078;2023-05-27T11:37:55;102190.75;;;20.21;44.57
50103;BME280;35993;52.604;10.078;2023-05-27T11:40:22;102191.22;;;20.18;44.87
50103;BME280;35993;52.604;10.078;2023-05-27T11:42:48;102190.69;;;20.33;45.21
50103;BME280;35993;52.604;10.078;2023-05-27T11:45:15;102193.59;;;20.26;45.49
50103;BME280;35993;52.604;10.078;2023-05-27T11:47:41;102191.84;;;20.37;45.51
50103;BME280;35993;52.604;10.078;2023-05-27T11:50:08;102177.91;;;20.43;45.33
50103;BME280;35993;52.604;10.078;2023-05-27T11:52:34;102173.59;;;20.65;44.83
50103;BME280;35993;52.604;10.078;2023-05-27T11:55:00;102167.19;;;20.59;44.44
50103;BME280;35993;52.604;10.078;2023-05-27T11:57:25;102172.59;;;20.54;45.27
50103;BME280;35993;52.604;10.078;2023-05-27T11:59:51;102172.88;;;20.69;46.11
50103;BME280;35993;52.604;10.078;2023-05-27T12:02:16;102175.31;;;20.83;45.83
50103;BME280;35993;52.604;10.078;2023-05-27T12:04:42;102162.25;;;20.78;45.33
50103;BME280;35993;52.604;10.078;2023-05-27T12:07:09;102160.66;;;20.99;45.38
50103;BME280;35993;52.604;10.078;2023-05-27T12:09:34;102163.34;;;20.94;45.26
50103;BME280;35993;52.604;10.078;2023-05-27T12:12:00;102139.59;;;20.76;44.49
50103;BME280;35993;52.604;10.078;2023-05-27T12:14:26;102153.94;;;20.61;45.36
50103;BME280;35993;52.604;10.078;2023-05-27T12:16:52;102141.66;;;20.52;44.75
50103;BME280;35993;52.604;10.078;2023-05-27T12:19:17;102136.13;;;20.52;44.30
50103;BME280;35993;52.604;10.078;2023-05-27T12:21:43;102131.78;;;20.56;44.31
50103;BME280;35993;52.604;10.078;2023-05-27T12:24:08;102121.78;;;20.84;44.01
50103;BME280;35993;52.604;10.078;2023-05-27T12:26:34;102126.38;;;20.95;44.32
50103;BME280;35993;52.604;10.078;2023-05-27T12:29:00;102126.00;;;21.08;44.88
50103;BME280;35993;52.604;10.078;2023-05-27T12:31:25;102125.69;;;21.05;44.62
50103;BME280;35993;52.604;10.078;2023-05-27T12:33:51;102120.09;;;21.00;44.35
50103;BME280;35993;52.604;10.078;2023-05-27T12:36:16;102110.00;;;20.88;44.05
50103;BME280;35993;52.604;10.078;2023-05-27T12:38:44;102107.56;;;20.92;44.05
50103;BME280;35993;52.604;10.078;2023-05-27T12:41:10;102106.59;;;21.20;43.00
50103;BME280;35993;52.604;10.078;2023-05-27T12:43:35;102084.72;;;20.97;41.94
50103;BME280;35993;52.604;10.078;2023-05-27T12:46:01;102096.66;;;21.02;42.30
50103;BME280;35993;52.604;10.078;2023-05-27T12:48:26;102090.78;;;21.16;41.82
50103;BME280;35993;52.604;10.078;2023-05-27T12:50:52;102077.09;;;21.48;41.35
50103;BME280;35993;52.604;10.078;2023-05-27T12:53:18;102074.94;;;21.50;40.67
50103;BME280;35993;52.604;10.078;2023-05-27T12:55:44;102077.69;;;21.50;41.08